sensor_id;sensor_type;location;lat;lon;timestamp;P1;durP1;ratioP1;P2;durP2;ratioP2
83026;SDS011;72842;56.038;12.706;2024-01-16T00:00:51;1.50;;;1.35;;
83026;SDS011;72842;56.038;12.706;2024-01-16T00:03:17;1.77;;;1.25;;
83026;SDS011;72842;56.038;12.706;2024-01-16T00:05:42;1.55;;;1.27;;
83026;SDS011;72842;56.038;12.706;2024-01-16T00:08:08;2.47;;;1.50;;
83026;SDS011;72842;56.038;12.706;2024-01-16T00:10:33;3.10;;;1.38;;
83026;SDS011;72842;56.038;12.706;2024-01-16T00:12:58;2.60;;;1.23;;
83026;SDS011;72842;56.038;12.706;2024-01-16T00:15:24;1.95;;;1.30;;
83026;SDS011;72842;56.038;12.706;2024-01-16T00:17:49;1.25;;;1.13;;
83026;SDS011;72842;56.038;12.706;2024-01-16T00:20:16;2.55;;;1.42;;
83026;SDS011;72842;56.038;12.706;2024-01-16T00:22:41;1.80;;;1.10;;
83026;SDS011;72842;56.038;12.706;2024-01-16T00:25:07;2.25;;;1.30;;
83026;SDS011;72842;56.038;12.706;2024-01-16T00:27:32;2.38;;;1.50;;
83026;SDS011;72842;56.038;12.706;2024-01-16T00:29:58;1.90;;;1.52;;
83026;SDS011;72842;56.038;12.706;2024-01-16T00:32:23;2.67;;;1.77;;
83026;SDS011;72842;56.038;12.706;2024-01-16T00:34:48;2.25;;;1.73;;
83026;SDS011;72842;56.038;12.706;2024-01-16T00:37:14;2.65;;;2.00;;
83026;SDS011;72842;56.038;12.706;2024-01-16T00:39:39;2.45;;;1.50;;
83026;SDS011;72842;56.038;12.706;2024-01-16T00:42:05;2.58;;;1.33;;
83026;SDS011;72842;56.038;12.706;2024-01-16T00:44:31;2.25;;;1.27;;
83026;SDS011;72842;56.038;12.706;2024-01-16T00:46:56;3.38;;;1.75;;
83026;SDS011;72842;56.038;12.706;2024-01-16T00:49:22;3.28;;;2.00;;
83026;SDS011;72842;56.038;12.706;2024-01-16T00:51:47;3.58;;;1.77;;
83026;SDS011;72842;56.038;12.706;2024-01-16T00:54:13;4.00;;;2.00;;
83026;SDS011;72842;56.038;12.706;2024-01-16T00:56:38;2.25;;;1.85;;
83026;SDS011;72842;56.038;12.706;2024-01-16T00:59:06;3.17;;;1.83;;
83026;SDS011;72842;56.038;12.706;2024-01-16T01:01:32;4.88;;;1.85;;
83026;SDS011;72842;56.038;12.706;2024-01-16T01:03:57;4.35;;;1.90;;
83026;SDS011;72842;56.038;12.706;2024-01-16T01:06:22;2.85;;;1.63;;
83026;SDS011;72842;56.038;12.706;2024-01-16T01:08:48;3.92;;;1.80;;
83026;SDS011;72842;56.038;12.706;2024-01-16T01:11:13;2.80;;;1.75;;
83026;SDS011;72842;56.038;12.706;2024-01-16T01:13:39;5.55;;;2.40;;
83026;SDS011;72842;56.038;12.706;2024-01-16T01:16:04;2.85;;;1.77;;
83026;SDS011;72842;56.038;12.706;2024-01-16T01:18:30;5.05;;;2.13;;
83026;SDS011;72842;56.038;12.706;2024-01-16T01:20:55;4.80;;;2.33;;
83026;SDS011;72842;56.038;12.706;2024-01-16T01:23:21;2.53;;;1.65;;
83026;SDS011;72842;56.038;12.706;2024-01-16T01:25:46;4.20;;;2.10;;
83026;SDS011;72842;56.038;12.706;2024-01-16T01:28:12;4.95;;;2.08;;
83026;SDS011;72842;56.038;12.706;2024-01-16T01:30:37;3.30;;;1.95;;
83026;SDS011;72842;56.038;12.706;2024-01-16T01:33:03;2.08;;;1.75;;
83026;SDS011;72842;56.038;12.706;2024-01-16T01:35:28;3.50;;;2.40;;
83026;SDS011;72842;56.038;12.706;2024-01-16T01:37:54;2.83;;;2.13;;
83026;SDS011;72842;56.038;12.706;2024-01-16T01:40:19;3.30;;;1.77;;
83026;SDS011;72842;56.038;12.706;2024-01-16T01:42:45;2.97;;;2.13;;
83026;SDS011;72842;56.038;12.706;2024-01-16T01:45:11;4.70;;;2.47;;
83026;SDS011;72842;56.038;12.706;2024-01-16T01:47:37;3.90;;;2.80;;
83026;SDS011;72842;56.038;12.706;2024-01-16T01:50:09;2.97;;;2.33;;
83026;SDS011;72842;56.038;12.706;2024-01-16T01:52:35;2.35;;;1.65;;
83026;SDS011;72842;56.038;12.706;2024-01-16T01:55:03;2.28;;;1.85;;
83026;SDS011;72842;56.038;12.706;2024-01-16T01:57:31;3.40;;;2.13;;
83026;SDS011;72842;56.038;12.706;2024-01-16T01:59:58;3.33;;;1.98;;
83026;SDS011;72842;56.038;12.706;2024-01-16T02:02:24;3.50;;;2.15;;
83026;SDS011;72842;56.038;12.706;2024-01-16T02:04:50;4.55;;;2.50;;
83026;SDS011;72842;56.038;12.706;2024-01-16T02:07:16;4.50;;;2.17;;
83026;SDS011;72842;56.038;12.706;2024-01-16T02:09:43;2.92;;;1.90;;
83026;SDS011;72842;56.038;12.706;2024-01-16T02:12:09;2.85;;;2.17;;
83026;SDS011;72842;56.038;12.706;2024-01-16T02:14:34;3.17;;;2.88;;
83026;SDS011;72842;56.038;12.706;2024-01-16T02:17:00;3.35;;;2.17;;
83026;SDS011;72842;56.038;12.706;2024-01-16T02:19:25;3.35;;;2.00;;
83026;SDS011;72842;56.038;12.706;2024-01-16T02:21:51;2.78;;;1.70;;
83026;SDS011;72842;56.038;12.706;2024-01-16T02:24:20;3.67;;;2.10;;
83026;SDS011;72842;56.038;12.706;2024-01-16T02:26:46;2.05;;;1.80;;
83026;SDS011;72842;56.038;12.706;2024-01-16T02:29:12;3.10;;;1.83;;
83026;SDS011;72842;56.038;12.706;2024-01-16T02:31:37;2.95;;;2.30;;
83026;SDS011;72842;56.038;12.706;2024-01-16T02:34:03;3.60;;;2.63;;
83026;SDS011;72842;56.038;12.706;2024-01-16T02:36:31;5.32;;;2.08;;
83026;SDS011;72842;56.038;12.706;2024-01-16T02:38:57;3.97;;;1.92;;
83026;SDS011;72842;56.038;12.706;2024-01-16T02:41:22;3.97;;;2.22;;
83026;SDS011;72842;56.038;12.706;2024-01-16T02:43:48;2.88;;;1.60;;
83026;SDS011;72842;56.038;12.706;2024-01-16T02:46:14;2.85;;;1.92;;
83026;SDS011;72842;56.038;12.706;2024-01-16T02:48:40;3.33;;;1.60;;
83026;SDS011;72842;56.038;12.706;2024-01-16T02:51:07;1.92;;;1.50;;
83026;SDS011;72842;56.038;12.706;2024-01-16T02:53:33;2.20;;;1.30;;
83026;SDS011;72842;56.038;12.706;2024-01-16T02:55:59;1.92;;;1.73;;
83026;SDS011;72842;56.038;12.706;2024-01-16T02:58:25;2.65;;;1.63;;
83026;SDS011;72842;56.038;12.706;2024-01-16T03:00:51;2.40;;;1.50;;
83026;SDS011;72842;56.038;12.706;2024-01-16T03:03:18;2.00;;;1.25;;
83026;SDS011;72842;56.038;12.706;2024-01-16T03:05:44;1.77;;;1.48;;
83026;SDS011;72842;56.038;12.706;2024-01-16T03:08:10;2.28;;;1.50;;
83026;SDS011;72842;56.038;12.706;2024-01-16T03:10:35;1.65;;;1.27;;
83026;SDS011;72842;56.038;12.706;2024-01-16T03:13:01;2.40;;;1.52;;
83026;SDS011;72842;56.038;12.706;2024-01-16T03:15:27;1.75;;;1.48;;
83026;SDS011;72842;56.038;12.706;2024-01-16T03:17:53;2.55;;;1.85;;
83026;SDS011;72842;56.038;12.706;2024-01-16T03:20:18;1.42;;;1.33;;
83026;SDS011;72842;56.038;12.706;2024-01-16T03:22:44;1.55;;;1.42;;
83026;SDS011;72842;56.038;12.706;2024-01-16T03:25:09;2.53;;;1.75;;
83026;SDS011;72842;56.038;12.706;2024-01-16T03:27:37;2.78;;;1.30;;
83026;SDS011;72842;56.038;12.706;2024-01-16T03:30:03;1.63;;;1.52;;
83026;SDS011;72842;56.038;12.706;2024-01-16T03:32:28;2.05;;;1.10;;
83026;SDS011;72842;56.038;12.706;2024-01-16T03:34:54;1.85;;;1.40;;
83026;SDS011;72842;56.038;12.706;2024-01-16T03:37:20;1.50;;;0.95;;
83026;SDS011;72842;56.038;12.706;2024-01-16T03:39:45;1.50;;;1.30;;
83026;SDS011;72842;56.038;12.706;2024-01-16T03:42:10;2.20;;;1.38;;
83026;SDS011;72842;56.038;12.706;2024-01-16T03:44:38;1.77;;;1.02;;
83026;SDS011;72842;56.038;12.706;2024-01-16T03:47:04;2.00;;;1.00;;
83026;SDS011;72842;56.038;12.706;2024-01-16T03:49:29;2.45;;;1.20;;
83026;SDS011;72842;56.038;12.706;2024-01-16T03:51:55;1.48;;;1.25;;
83026;SDS011;72842;56.038;12.706;2024-01-16T03:54:20;1.52;;;1.27;;
83026;SDS011;72842;56.038;12.706;2024-01-16T03:56:45;3.03;;;1.13;;
83026;SDS011;72842;56.038;12.706;2024-01-16T03:59:12;1.38;;;1.25;;
83026;SDS011;72842;56.038;12.706;2024-01-16T04:01:37;1.88;;;1.25;;
83026;SDS011;72842;56.038;12.706;2024-01-16T04:04:03;1.77;;;1.10;;
83026;SDS011;72842;56.038;12.706;2024-01-16T04:06:31;1.58;;;1.45;;
83026;SDS011;72842;56.038;12.706;2024-01-16T04:08:57;3.33;;;1.60;;
83026;SDS011;72842;56.038;12.706;2024-01-16T04:11:23;1.10;;;0.90;;
83026;SDS011;72842;56.038;12.706;2024-01-16T04:13:48;2.15;;;1.50;;
83026;SDS011;72842;56.038;12.706;2024-01-16T04:16:14;2.75;;;1.08;;
83026;SDS011;72842;56.038;12.706;2024-01-16T04:18:41;2.00;;;1.27;;
83026;SDS011;72842;56.038;12.706;2024-01-16T04:21:07;2.08;;;1.58;;
83026;SDS011;72842;56.038;12.706;2024-01-16T04:23:33;2.03;;;1.23;;
83026;SDS011;72842;56.038;12.706;2024-01-16T04:25:58;1.30;;;1.20;;
83026;SDS011;72842;56.038;12.706;2024-01-16T04:28:24;2.03;;;0.90;;
83026;SDS011;72842;56.038;12.706;2024-01-16T04:30:49;1.27;;;1.10;;
83026;SDS011;72842;56.038;12.706;2024-01-16T04:33:15;2.17;;;1.10;;
83026;SDS011;72842;56.038;12.706;2024-01-16T04:35:40;1.13;;;1.02;;
83026;SDS011;72842;56.038;12.706;2024-01-16T04:38:06;1.33;;;0.80;;
83026;SDS011;72842;56.038;12.706;2024-01-16T04:40:32;1.77;;;1.20;;
83026;SDS011;72842;56.038;12.706;2024-01-16T04:42:58;1.15;;;1.05;;
83026;SDS011;72842;56.038;12.706;2024-01-16T04:45:24;2.58;;;1.00;;
83026;SDS011;72842;56.038;12.706;2024-01-16T04:47:49;0.98;;;0.88;;
83026;SDS011;72842;56.038;12.706;2024-01-16T04:50:15;1.48;;;1.15;;
83026;SDS011;72842;56.038;12.706;2024-01-16T04:52:40;1.38;;;1.10;;
83026;SDS011;72842;56.038;12.706;2024-01-16T04:55:06;1.50;;;0.80;;
83026;SDS011;72842;56.038;12.706;2024-01-16T04:57:32;0.80;;;0.80;;
83026;SDS011;72842;56.038;12.706;2024-01-16T04:59:58;1.58;;;0.73;;
83026;SDS011;72842;56.038;12.706;2024-01-16T05:02:23;1.58;;;1.08;;
83026;SDS011;72842;56.038;12.706;2024-01-16T05:04:49;2.15;;;0.82;;
83026;SDS011;72842;56.038;12.706;2024-01-16T05:07:17;0.90;;;0.70;;
83026;SDS011;72842;56.038;12.706;2024-01-16T05:09:48;1.63;;;1.42;;
83026;SDS011;72842;56.038;12.706;2024-01-16T05:12:13;1.23;;;1.02;;
83026;SDS011;72842;56.038;12.706;2024-01-16T05:14:38;1.38;;;1.10;;
83026;SDS011;72842;56.038;12.706;2024-01-16T05:17:04;1.38;;;1.20;;
83026;SDS011;72842;56.038;12.706;2024-01-16T05:19:29;1.25;;;0.90;;
83026;SDS011;72842;56.038;12.706;2024-01-16T05:21:55;0.90;;;0.90;;
83026;SDS011;72842;56.038;12.706;2024-01-16T05:24:20;1.13;;;0.80;;
83026;SDS011;72842;56.038;12.706;2024-01-16T05:26:46;1.65;;;0.98;;
83026;SDS011;72842;56.038;12.706;2024-01-16T05:29:11;1.83;;;0.98;;
83026;SDS011;72842;56.038;12.706;2024-01-16T05:31:40;1.60;;;0.77;;
83026;SDS011;72842;56.038;12.706;2024-01-16T05:34:07;1.08;;;0.70;;
83026;SDS011;72842;56.038;12.706;2024-01-16T05:36:32;1.50;;;1.40;;
83026;SDS011;72842;56.038;12.706;2024-01-16T05:38:58;1.63;;;1.05;;
83026;SDS011;72842;56.038;12.706;2024-01-16T05:41:23;1.50;;;0.90;;
83026;SDS011;72842;56.038;12.706;2024-01-16T05:43:48;2.08;;;1.00;;
83026;SDS011;72842;56.038;12.706;2024-01-16T05:46:14;1.58;;;1.02;;
83026;SDS011;72842;56.038;12.706;2024-01-16T05:48:39;2.53;;;0.77;;
83026;SDS011;72842;56.038;12.706;2024-01-16T05:51:05;1.00;;;0.90;;
83026;SDS011;72842;56.038;12.706;2024-01-16T05:53:30;1.70;;;1.05;;
83026;SDS011;72842;56.038;12.706;2024-01-16T05:55:56;2.53;;;1.10;;
83026;SDS011;72842;56.038;12.706;2024-01-16T05:58:21;1.05;;;1.02;;
83026;SDS011;72842;56.038;12.706;2024-01-16T06:00:47;2.05;;;1.00;;
83026;SDS011;72842;56.038;12.706;2024-01-16T06:03:12;1.05;;;1.00;;
83026;SDS011;72842;56.038;12.706;2024-01-16T06:05:38;2.10;;;1.00;;
83026;SDS011;72842;56.038;12.706;2024-01-16T06:08:03;1.10;;;0.82;;
83026;SDS011;72842;56.038;12.706;2024-01-16T06:10:29;1.20;;;1.08;;
83026;SDS011;72842;56.038;12.706;2024-01-16T06:12:54;1.55;;;0.90;;
83026;SDS011;72842;56.038;12.706;2024-01-16T06:15:20;2.30;;;1.27;;
83026;SDS011;72842;56.038;12.706;2024-01-16T06:17:45;1.73;;;1.00;;
83026;SDS011;72842;56.038;12.706;2024-01-16T06:20:10;2.30;;;1.02;;
83026;SDS011;72842;56.038;12.706;2024-01-16T06:22:36;1.02;;;0.80;;
83026;SDS011;72842;56.038;12.706;2024-01-16T06:25:01;3.25;;;0.93;;
83026;SDS011;72842;56.038;12.706;2024-01-16T06:27:27;1.65;;;1.35;;
83026;SDS011;72842;56.038;12.706;2024-01-16T06:29:52;1.15;;;0.98;;
83026;SDS011;72842;56.038;12.706;2024-01-16T06:32:18;1.98;;;1.00;;
83026;SDS011;72842;56.038;12.706;2024-01-16T06:34:44;1.02;;;0.90;;
83026;SDS011;72842;56.038;12.706;2024-01-16T06:37:09;2.55;;;1.00;;
83026;SDS011;72842;56.038;12.706;2024-01-16T06:39:35;1.13;;;1.00;;
83026;SDS011;72842;56.038;12.706;2024-01-16T06:42:01;1.08;;;0.98;;
83026;SDS011;72842;56.038;12.706;2024-01-16T06:44:27;1.05;;;0.80;;
83026;SDS011;72842;56.038;12.706;2024-01-16T06:46:52;1.30;;;1.20;;
83026;SDS011;72842;56.038;12.706;2024-01-16T06:49:17;1.67;;;1.10;;
83026;SDS011;72842;56.038;12.706;2024-01-16T06:51:43;1.77;;;1.45;;
83026;SDS011;72842;56.038;12.706;2024-01-16T06:54:08;1.15;;;0.93;;
83026;SDS011;72842;56.038;12.706;2024-01-16T06:56:33;1.63;;;1.08;;
83026;SDS011;72842;56.038;12.706;2024-01-16T06:58:59;2.53;;;1.23;;
83026;SDS011;72842;56.038;12.706;2024-01-16T07:01:24;1.42;;;0.80;;
83026;SDS011;72842;56.038;12.706;2024-01-16T07:03:50;0.85;;;0.70;;
83026;SDS011;72842;56.038;12.706;2024-01-16T07:06:17;1.40;;;1.20;;
83026;SDS011;72842;56.038;12.706;2024-01-16T07:08:43;1.08;;;0.90;;
83026;SDS011;72842;56.038;12.706;2024-01-16T07:11:08;1.10;;;0.80;;
83026;SDS011;72842;56.038;12.706;2024-01-16T07:13:37;1.13;;;0.95;;
83026;SDS011;72842;56.038;12.706;2024-01-16T07:16:03;2.30;;;0.90;;
83026;SDS011;72842;56.038;12.706;2024-01-16T07:18:29;1.52;;;0.90;;
83026;SDS011;72842;56.038;12.706;2024-01-16T07:20:54;1.02;;;0.80;;
83026;SDS011;72842;56.038;12.706;2024-01-16T07:23:20;0.85;;;0.77;;
83026;SDS011;72842;56.038;12.706;2024-01-16T07:25:45;0.95;;;0.85;;
83026;SDS011;72842;56.038;12.706;2024-01-16T07:28:11;1.73;;;1.00;;
83026;SDS011;72842;56.038;12.706;2024-01-16T07:30:36;1.80;;;0.90;;
83026;SDS011;72842;56.038;12.706;2024-01-16T07:33:02;1.77;;;0.90;;
83026;SDS011;72842;56.038;12.706;2024-01-16T07:35:28;1.83;;;0.85;;
83026;SDS011;72842;56.038;12.706;2024-01-16T07:37:54;1.60;;;1.50;;
83026;SDS011;72842;56.038;12.706;2024-01-16T07:40:19;0.80;;;0.80;;
83026;SDS011;72842;56.038;12.706;2024-01-16T07:42:45;1.17;;;1.05;;
83026;SDS011;72842;56.038;12.706;2024-01-16T07:45:11;1.30;;;0.85;;
83026;SDS011;72842;56.038;12.706;2024-01-16T07:47:36;1.23;;;1.00;;
83026;SDS011;72842;56.038;12.706;2024-01-16T07:50:02;1.13;;;0.90;;
83026;SDS011;72842;56.038;12.706;2024-01-16T07:52:28;1.23;;;0.90;;
83026;SDS011;72842;56.038;12.706;2024-01-16T07:54:54;1.40;;;1.10;;
83026;SDS011;72842;56.038;12.706;2024-01-16T07:57:19;1.95;;;1.05;;
83026;SDS011;72842;56.038;12.706;2024-01-16T07:59:45;2.03;;;0.80;;
83026;SDS011;72842;56.038;12.706;2024-01-16T08:02:11;1.92;;;0.90;;
83026;SDS011;72842;56.038;12.706;2024-01-16T08:04:36;1.25;;;0.90;;
83026;SDS011;72842;56.038;12.706;2024-01-16T08:07:02;1.52;;;0.80;;
83026;SDS011;72842;56.038;12.706;2024-01-16T08:09:27;1.25;;;0.88;;
83026;SDS011;72842;56.038;12.706;2024-01-16T08:11:53;0.90;;;0.75;;
83026;SDS011;72842;56.038;12.706;2024-01-16T08:14:18;1.27;;;0.60;;
83026;SDS011;72842;56.038;12.706;2024-01-16T08:16:44;1.75;;;0.85;;
83026;SDS011;72842;56.038;12.706;2024-01-16T08:19:09;1.35;;;0.90;;
83026;SDS011;72842;56.038;12.706;2024-01-16T08:21:35;2.00;;;0.73;;
83026;SDS011;72842;56.038;12.706;2024-01-16T08:24:01;1.83;;;1.00;;
83026;SDS011;72842;56.038;12.706;2024-01-16T08:26:27;0.90;;;0.73;;
83026;SDS011;72842;56.038;12.706;2024-01-16T08:28:53;1.33;;;1.23;;
83026;SDS011;72842;56.038;12.706;2024-01-16T08:31:20;1.52;;;1.27;;
83026;SDS011;72842;56.038;12.706;2024-01-16T08:33:46;1.58;;;1.15;;
83026;SDS011;72842;56.038;12.706;2024-01-16T08:36:12;2.00;;;1.48;;
83026;SDS011;72842;56.038;12.706;2024-01-16T08:38:38;2.67;;;1.23;;
83026;SDS011;72842;56.038;12.706;2024-01-16T08:41:03;1.42;;;1.33;;
83026;SDS011;72842;56.038;12.706;2024-01-16T08:43:31;3.28;;;1.65;;
83026;SDS011;72842;56.038;12.706;2024-01-16T08:45:58;2.22;;;1.48;;
83026;SDS011;72842;56.038;12.706;2024-01-16T08:48:23;3.55;;;1.60;;
83026;SDS011;72842;56.038;12.706;2024-01-16T08:50:49;2.00;;;1.73;;
83026;SDS011;72842;56.038;12.706;2024-01-16T08:53:14;2.20;;;1.63;;
83026;SDS011;72842;56.038;12.706;2024-01-16T08:55:40;2.63;;;1.63;;
83026;SDS011;72842;56.038;12.706;2024-01-16T08:58:05;3.85;;;1.85;;
83026;SDS011;72842;56.038;12.706;2024-01-16T09:00:30;3.53;;;1.50;;
83026;SDS011;72842;56.038;12.706;2024-01-16T09:02:56;3.50;;;1.63;;
83026;SDS011;72842;56.038;12.706;2024-01-16T09:05:22;2.72;;;1.67;;
83026;SDS011;72842;56.038;12.706;2024-01-16T09:07:50;2.60;;;1.98;;
83026;SDS011;72842;56.038;12.706;2024-01-16T09:10:16;3.83;;;1.98;;
83026;SDS011;72842;56.038;12.706;2024-01-16T09:12:42;2.17;;;1.63;;
83026;SDS011;72842;56.038;12.706;2024-01-16T09:15:07;2.60;;;1.38;;
83026;SDS011;72842;56.038;12.706;2024-01-16T09:17:33;2.88;;;1.50;;
83026;SDS011;72842;56.038;12.706;2024-01-16T09:19:59;2.85;;;1.50;;
83026;SDS011;72842;56.038;12.706;2024-01-16T09:22:24;1.67;;;1.58;;
83026;SDS011;72842;56.038;12.706;2024-01-16T09:24:49;2.15;;;1.80;;
83026;SDS011;72842;56.038;12.706;2024-01-16T09:27:15;2.22;;;1.60;;
83026;SDS011;72842;56.038;12.706;2024-01-16T09:29:41;2.22;;;1.80;;
83026;SDS011;72842;56.038;12.706;2024-01-16T09:32:07;2.10;;;1.88;;
83026;SDS011;72842;56.038;12.706;2024-01-16T09:34:32;2.10;;;1.48;;
83026;SDS011;72842;56.038;12.706;2024-01-16T09:36:58;2.65;;;1.50;;
83026;SDS011;72842;56.038;12.706;2024-01-16T09:39:26;1.65;;;1.25;;
83026;SDS011;72842;56.038;12.706;2024-01-16T09:41:51;2.13;;;1.25;;
83026;SDS011;72842;56.038;12.706;2024-01-16T09:44:17;1.75;;;1.45;;
83026;SDS011;72842;56.038;12.706;2024-01-16T09:46:43;2.35;;;1.42;;
83026;SDS011;72842;56.038;12.706;2024-01-16T09:49:11;2.72;;;1.40;;
83026;SDS011;72842;56.038;12.706;2024-01-16T09:51:39;1.65;;;1.00;;
83026;SDS011;72842;56.038;12.706;2024-01-16T09:54:04;1.98;;;1.33;;
83026;SDS011;72842;56.038;12.706;2024-01-16T09:56:33;1.73;;;1.20;;
83026;SDS011;72842;56.038;12.706;2024-01-16T09:59:05;1.80;;;1.23;;
83026;SDS011;72842;56.038;12.706;2024-01-16T10:01:32;1.17;;;0.93;;
83026;SDS011;72842;56.038;12.706;2024-01-16T10:03:58;1.95;;;1.25;;
83026;SDS011;72842;56.038;12.706;2024-01-16T10:06:24;1.27;;;1.10;;
83026;SDS011;72842;56.038;12.706;2024-01-16T10:08:52;1.90;;;1.08;;
83026;SDS011;72842;56.038;12.706;2024-01-16T10:11:18;2.17;;;1.17;;
83026;SDS011;72842;56.038;12.706;2024-01-16T10:13:44;1.55;;;1.02;;
83026;SDS011;72842;56.038;12.706;2024-01-16T10:16:09;2.15;;;1.52;;
83026;SDS011;72842;56.038;12.706;2024-01-16T10:18:35;2.08;;;0.98;;
83026;SDS011;72842;56.038;12.706;2024-01-16T10:21:02;1.55;;;1.17;;
83026;SDS011;72842;56.038;12.706;2024-01-16T10:23:29;1.45;;;1.20;;
83026;SDS011;72842;56.038;12.706;2024-01-16T10:26:08;1.70;;;1.00;;
83026;SDS011;72842;56.038;12.706;2024-01-16T10:28:35;1.20;;;0.82;;
83026;SDS011;72842;56.038;12.706;2024-01-16T10:31:03;1.40;;;0.80;;
83026;SDS011;72842;56.038;12.706;2024-01-16T10:33:30;1.15;;;0.90;;
83026;SDS011;72842;56.038;12.706;2024-01-16T10:36:11;1.42;;;0.70;;
83026;SDS011;72842;56.038;12.706;2024-01-16T10:38:42;1.15;;;1.08;;
83026;SDS011;72842;56.038;12.706;2024-01-16T10:44:03;1.63;;;1.10;;
83026;SDS011;72842;56.038;12.706;2024-01-16T10:46:32;1.02;;;0.65;;
83026;SDS011;72842;56.038;12.706;2024-01-16T10:49:03;2.00;;;1.00;;
83026;SDS011;72842;56.038;12.706;2024-01-16T10:51:30;0.98;;;0.60;;
83026;SDS011;72842;56.038;12.706;2024-01-16T10:56:28;1.55;;;0.73;;
83026;SDS011;72842;56.038;12.706;2024-01-16T10:58:58;0.90;;;0.50;;
83026;SDS011;72842;56.038;12.706;2024-01-16T11:01:31;1.33;;;0.75;;
83026;SDS011;72842;56.038;12.706;2024-01-16T11:03:57;1.33;;;1.00;;
83026;SDS011;72842;56.038;12.706;2024-01-16T11:06:26;1.40;;;1.17;;
83026;SDS011;72842;56.038;12.706;2024-01-16T11:08:52;1.20;;;1.00;;
83026;SDS011;72842;56.038;12.706;2024-01-16T11:11:19;1.17;;;0.80;;
83026;SDS011;72842;56.038;12.706;2024-01-16T11:13:46;1.02;;;0.80;;
83026;SDS011;72842;56.038;12.706;2024-01-16T11:16:13;1.33;;;0.73;;
83026;SDS011;72842;56.038;12.706;2024-01-16T11:18:39;1.98;;;0.88;;
83026;SDS011;72842;56.038;12.706;2024-01-16T11:21:06;1.30;;;0.90;;
83026;SDS011;72842;56.038;12.706;2024-01-16T11:23:34;1.17;;;0.80;;
83026;SDS011;72842;56.038;12.706;2024-01-16T11:28:57;1.38;;;0.63;;
83026;SDS011;72842;56.038;12.706;2024-01-16T11:31:33;0.88;;;0.73;;
83026;SDS011;72842;56.038;12.706;2024-01-16T11:34:03;1.65;;;0.80;;
83026;SDS011;72842;56.038;12.706;2024-01-16T11:39:17;0.73;;;0.70;;
83026;SDS011;72842;56.038;12.706;2024-01-16T11:41:53;0.60;;;0.55;;
83026;SDS011;72842;56.038;12.706;2024-01-16T11:44:35;0.63;;;0.57;;
83026;SDS011;72842;56.038;12.706;2024-01-16T11:49:29;1.25;;;0.60;;
83026;SDS011;72842;56.038;12.706;2024-01-16T11:51:58;1.38;;;0.52;;
83026;SDS011;72842;56.038;12.706;2024-01-16T11:54:24;0.57;;;0.50;;
83026;SDS011;72842;56.038;12.706;2024-01-16T12:02:26;1.27;;;0.57;;
83026;SDS011;72842;56.038;12.706;2024-01-16T12:04:59;1.00;;;0.70;;
83026;SDS011;72842;56.038;12.706;2024-01-16T12:07:28;1.05;;;0.73;;
83026;SDS011;72842;56.038;12.706;2024-01-16T12:09:58;1.45;;;0.70;;
83026;SDS011;72842;56.038;12.706;2024-01-16T12:12:25;0.52;;;0.52;;
83026;SDS011;72842;56.038;12.706;2024-01-16T12:14:50;0.90;;;0.47;;
83026;SDS011;72842;56.038;12.706;2024-01-16T12:17:18;2.50;;;0.77;;
83026;SDS011;72842;56.038;12.706;2024-01-16T12:19:45;1.70;;;0.65;;
83026;SDS011;72842;56.038;12.706;2024-01-16T12:22:14;0.90;;;0.70;;
83026;SDS011;72842;56.038;12.706;2024-01-16T12:24:41;0.90;;;0.77;;
83026;SDS011;72842;56.038;12.706;2024-01-16T12:27:07;1.05;;;0.60;;
83026;SDS011;72842;56.038;12.706;2024-01-16T12:29:34;2.20;;;0.65;;
83026;SDS011;72842;56.038;12.706;2024-01-16T12:32:11;1.27;;;0.82;;
83026;SDS011;72842;56.038;12.706;2024-01-16T12:34:43;0.75;;;0.57;;
83026;SDS011;72842;56.038;12.706;2024-01-16T12:37:11;0.60;;;0.60;;
83026;SDS011;72842;56.038;12.706;2024-01-16T12:39:37;0.70;;;0.70;;
83026;SDS011;72842;56.038;12.706;2024-01-16T12:42:03;0.88;;;0.88;;
83026;SDS011;72842;56.038;12.706;2024-01-16T12:44:29;0.93;;;0.50;;
83026;SDS011;72842;56.038;12.706;2024-01-16T12:46:55;1.35;;;0.75;;
83026;SDS011;72842;56.038;12.706;2024-01-16T12:49:25;0.70;;;0.60;;
83026;SDS011;72842;56.038;12.706;2024-01-16T12:51:50;0.57;;;0.57;;
83026;SDS011;72842;56.038;12.706;2024-01-16T12:54:17;0.88;;;0.70;;
83026;SDS011;72842;56.038;12.706;2024-01-16T12:56:47;0.80;;;0.60;;
83026;SDS011;72842;56.038;12.706;2024-01-16T12:59:12;0.95;;;0.75;;
83026;SDS011;72842;56.038;12.706;2024-01-16T13:01:44;1.10;;;0.60;;
83026;SDS011;72842;56.038;12.706;2024-01-16T13:04:11;3.42;;;0.90;;
83026;SDS011;72842;56.038;12.706;2024-01-16T13:06:37;0.73;;;0.60;;
83026;SDS011;72842;56.038;12.706;2024-01-16T13:09:06;0.63;;;0.50;;
83026;SDS011;72842;56.038;12.706;2024-01-16T13:11:47;1.92;;;0.80;;
83026;SDS011;72842;56.038;12.706;2024-01-16T13:14:17;2.10;;;0.60;;
83026;SDS011;72842;56.038;12.706;2024-01-16T13:16:45;2.53;;;0.70;;
83026;SDS011;72842;56.038;12.706;2024-01-16T13:19:11;1.52;;;0.85;;
83026;SDS011;72842;56.038;12.706;2024-01-16T13:21:36;0.73;;;0.70;;
83026;SDS011;72842;56.038;12.706;2024-01-16T13:24:03;1.30;;;0.68;;
83026;SDS011;72842;56.038;12.706;2024-01-16T13:26:28;1.55;;;0.57;;
83026;SDS011;72842;56.038;12.706;2024-01-16T13:28:54;0.55;;;0.40;;
83026;SDS011;72842;56.038;12.706;2024-01-16T13:31:19;1.08;;;0.45;;
83026;SDS011;72842;56.038;12.706;2024-01-16T13:33:45;1.88;;;1.02;;
83026;SDS011;72842;56.038;12.706;2024-01-16T13:36:10;1.30;;;0.73;;
83026;SDS011;72842;56.038;12.706;2024-01-16T13:38:36;1.08;;;0.80;;
83026;SDS011;72842;56.038;12.706;2024-01-16T13:41:02;1.15;;;0.70;;
83026;SDS011;72842;56.038;12.706;2024-01-16T13:43:27;1.27;;;0.80;;
83026;SDS011;72842;56.038;12.706;2024-01-16T13:45:53;1.15;;;0.60;;
83026;SDS011;72842;56.038;12.706;2024-01-16T13:48:20;1.73;;;0.57;;
83026;SDS011;72842;56.038;12.706;2024-01-16T13:50:46;2.00;;;0.70;;
83026;SDS011;72842;56.038;12.706;2024-01-16T13:53:11;1.15;;;0.70;;
83026;SDS011;72842;56.038;12.706;2024-01-16T13:55:40;0.85;;;0.65;;
83026;SDS011;72842;56.038;12.706;2024-01-16T13:58:06;2.70;;;0.52;;
83026;SDS011;72842;56.038;12.706;2024-01-16T14:00:32;1.25;;;0.70;;
83026;SDS011;72842;56.038;12.706;2024-01-16T14:02:57;1.70;;;0.63;;
83026;SDS011;72842;56.038;12.706;2024-01-16T14:05:23;1.02;;;0.90;;
83026;SDS011;72842;56.038;12.706;2024-01-16T14:07:49;1.50;;;0.98;;
83026;SDS011;72842;56.038;12.706;2024-01-16T14:10:17;1.40;;;0.60;;
83026;SDS011;72842;56.038;12.706;2024-01-16T14:12:44;1.25;;;1.10;;
83026;SDS011;72842;56.038;12.706;2024-01-16T14:15:12;1.50;;;0.90;;
83026;SDS011;72842;56.038;12.706;2024-01-16T14:17:49;2.05;;;0.70;;
83026;SDS011;72842;56.038;12.706;2024-01-16T14:20:22;0.77;;;0.65;;
83026;SDS011;72842;56.038;12.706;2024-01-16T14:22:58;0.70;;;0.70;;
83026;SDS011;72842;56.038;12.706;2024-01-16T14:25:24;1.08;;;0.98;;
83026;SDS011;72842;56.038;12.706;2024-01-16T14:27:58;1.30;;;0.88;;
83026;SDS011;72842;56.038;12.706;2024-01-16T14:30:24;1.35;;;0.80;;
83026;SDS011;72842;56.038;12.706;2024-01-16T14:32:50;2.75;;;0.70;;
83026;SDS011;72842;56.038;12.706;2024-01-16T14:35:16;3.83;;;1.20;;
83026;SDS011;72842;56.038;12.706;2024-01-16T14:37:42;1.88;;;0.98;;
83026;SDS011;72842;56.038;12.706;2024-01-16T14:40:08;1.30;;;0.82;;
83026;SDS011;72842;56.038;12.706;2024-01-16T14:42:55;1.73;;;1.00;;
83026;SDS011;72842;56.038;12.706;2024-01-16T14:45:24;2.15;;;1.08;;
83026;SDS011;72842;56.038;12.706;2024-01-16T14:47:50;2.08;;;1.17;;